Time;durP1;ratioP1;P1;durP2;ratioP2;P2;SDS_P1;SDS_P2;PMS_P1;PMS_P2;Temp;Humidity;BMP_temperature;BMP_pressure;BME280_temperature;BME280_humidity;BME280_pressure;Samples;Min_cycle;Max_cycle;Signal;HPM_P1;HPM_P2
2021/12/24 00:01:15;;;;;;;25.00;17.53;;;9.30;99.90;;;;;;5117665;27;20204;-84
2021/12/24 00:03:42;;;;;;;26.57;16.53;;;9.30;99.90;;;;;;5117637;28;20667;-84
2021/12/24 00:06:11;;;;;;;28.90;17.83;;;9.30;99.90;;;;;;5116166;28;20200;-84
2021/12/24 00:08:39;;;;;;;24.07;17.13;;;9.30;99.90;;;;;;5117104;28;20624;-84
2021/12/24 00:11:08;;;;;;;25.97;16.77;;;9.40;99.90;;;;;;5116526;28;20216;-82
2021/12/24 00:13:40;;;;;;;23.63;16.80;;;9.40;99.90;;;;;;5115711;28;20207;-83
2021/12/24 00:16:19;;;;;;;25.63;17.40;;;9.40;99.90;;;;;;5115575;28;20192;-85
2021/12/24 00:18:52;;;;;;;22.07;15.67;;;9.30;99.90;;;;;;5116159;28;20236;-83
2021/12/24 00:35:33;;;;;;;28.73;15.83;;;9.50;99.90;;;;;;5056295;28;20222;-81
2021/12/24 00:38:03;;;;;;;26.43;15.47;;;9.70;99.90;;;;;;5115953;28;20311;-81
2021/12/24 00:40:33;;;;;;;25.43;15.03;;;9.60;99.90;;;;;;5116281;28;20578;-84
2021/12/24 00:43:02;;;;;;;23.70;14.43;;;9.60;99.90;;;;;;5115930;28;20235;-83
2021/12/24 00:45:34;;;;;;;22.17;15.63;;;9.60;99.90;;;;;;5115462;28;20197;-85
2021/12/24 00:48:05;;;;;;;28.97;16.03;;;9.60;99.90;;;;;;5115679;28;20188;-83
2021/12/24 00:50:48;;;;;;;26.43;14.97;;;9.60;99.90;;;;;;5115087;28;20616;-83
2021/12/24 00:55:58;;;;;;;22.60;15.57;;;9.60;99.90;;;;;;5115506;28;20200;-81
2021/12/24 00:58:26;;;;;;;21.50;14.90;;;9.60;99.90;;;;;;5115176;28;20195;-79
2021/12/24 01:00:53;;;;;;;25.83;16.70;;;9.60;99.90;;;;;;5114815;28;20208;-83
2021/12/24 01:03:20;;;;;;;27.80;16.30;;;9.60;99.90;;;;;;5114889;28;20224;-80
2021/12/24 01:05:47;;;;;;;25.93;14.87;;;9.60;99.90;;;;;;5114293;28;20217;-81
2021/12/24 01:08:16;;;;;;;25.90;15.93;;;9.50;99.90;;;;;;5114352;28;20189;-80
2021/12/24 01:10:46;;;;;;;26.97;16.00;;;9.60;99.90;;;;;;5114247;27;20215;-79
2021/12/24 01:13:14;;;;;;;23.90;15.70;;;9.50;99.90;;;;;;5114495;28;20207;-84
2021/12/24 01:15:53;;;;;;;22.03;16.10;;;9.60;99.90;;;;;;5114282;28;20200;-84
2021/12/24 01:18:30;;;;;;;26.37;15.63;;;9.60;99.90;;;;;;5114438;28;20226;-82
2021/12/24 01:21:10;;;;;;;29.87;16.63;;;9.50;99.90;;;;;;5115257;28;20192;-83
2021/12/24 01:23:45;;;;;;;26.13;15.50;;;9.50;99.90;;;;;;5114712;28;20232;-80
2021/12/24 01:26:18;;;;;;;30.33;16.30;;;9.50;99.90;;;;;;5113563;28;20563;-84
2021/12/24 01:29:04;;;;;;;26.27;16.17;;;9.50;99.90;;;;;;5114870;28;20207;-82
2021/12/24 01:40:05;;;;;;;25.43;16.37;;;9.50;99.90;;;;;;5114007;28;20203;-81
2021/12/24 01:42:42;;;;;;;29.07;16.60;;;9.50;99.90;;;;;;5114391;27;20220;-79
2021/12/24 01:45:22;;;;;;;27.53;16.83;;;9.40;99.90;;;;;;5114161;28;20228;-81
2021/12/24 01:47:53;;;;;;;28.07;16.93;;;9.50;99.90;;;;;;5112811;28;20208;-82
2021/12/24 01:50:21;;;;;;;27.13;18.17;;;9.40;99.90;;;;;;5113547;28;20215;-80
2021/12/24 01:52:51;;;;;;;30.57;16.83;;;9.50;99.90;;;;;;5113270;28;20243;-84
2021/12/24 01:55:19;;;;;;;31.90;17.40;;;9.50;99.90;;;;;;5113516;28;20220;-83
2021/12/24 01:57:47;;;;;;;27.07;16.77;;;9.50;99.90;;;;;;5113323;28;20644;-80
2021/12/24 02:00:17;;;;;;;35.00;17.73;;;9.50;99.90;;;;;;5113441;27;20185;-82
2021/12/24 02:02:44;;;;;;;28.13;16.60;;;9.50;99.90;;;;;;5112985;28;20224;-80
2021/12/24 02:05:13;;;;;;;28.70;16.50;;;9.50;99.90;;;;;;5113262;27;20200;-82
2021/12/24 02:07:40;;;;;;;33.57;16.57;;;9.50;99.90;;;;;;5096646;28;20213;-83
2021/12/24 02:10:09;;;;;;;31.17;16.47;;;9.50;99.90;;;;;;5092288;28;20189;-79
2021/12/24 02:12:36;;;;;;;34.97;17.20;;;9.40;99.90;;;;;;5092371;28;20207;-80
2021/12/24 02:15:06;;;;;;;32.93;17.13;;;9.50;99.90;;;;;;5092750;28;20197;-80
2021/12/24 02:17:54;;;;;;;26.93;15.30;;;9.50;99.90;;;;;;5092661;28;20545;-80
2021/12/24 02:28:39;;;;;;;29.30;15.27;;;9.60;99.90;;;;;;5092148;28;20192;-80
2021/12/24 02:31:08;;;;;;;23.50;15.17;;;9.60;99.90;;;;;;5092528;28;20729;-80
2021/12/24 02:33:35;;;;;;;25.00;15.47;;;9.70;99.90;;;;;;5092787;28;20683;-80
2021/12/24 02:36:06;;;;;;;27.20;15.43;;;9.50;99.90;;;;;;5092798;28;20193;-82
2021/12/24 02:38:34;;;;;;;27.20;15.63;;;9.60;99.90;;;;;;5092435;28;20189;-78
2021/12/24 02:41:01;;;;;;;28.07;14.57;;;9.60;99.90;;;;;;5093022;28;20193;-78
2021/12/24 02:43:29;;;;;;;21.83;14.70;;;9.50;99.90;;;;;;5092610;28;20273;-80
2021/12/24 02:46:05;;;;;;;24.00;14.63;;;9.50;99.90;;;;;;5092521;28;20201;-79
2021/12/24 02:49:03;;;;;;;33.00;15.57;;;9.50;99.90;;;;;;5092140;28;20209;-82
2021/12/24 02:54:19;;;;;;;29.57;15.37;;;9.60;99.90;;;;;;5093057;28;20290;-80
2021/12/24 02:56:51;;;;;;;33.20;14.20;;;9.60;99.90;;;;;;5092210;28;20664;-79
2021/12/24 02:59:24;;;;;;;24.67;14.33;;;9.60;99.90;;;;;;5092982;28;20268;-79
2021/12/24 03:01:52;;;;;;;30.17;14.50;;;9.70;99.90;;;;;;5092377;28;20282;-81
2021/12/24 03:04:19;;;;;;;22.57;14.00;;;9.70;99.90;;;;;;5092702;28;20238;-80
2021/12/24 03:06:52;;;;;;;25.60;13.47;;;9.80;99.90;;;;;;5092177;28;20288;-80
2021/12/24 03:09:21;;;;;;;27.53;13.93;;;9.80;99.90;;;;;;5092202;28;20557;-80
2021/12/24 03:11:49;;;;;;;26.07;14.07;;;9.80;99.90;;;;;;5091988;28;20668;-79
2021/12/24 03:14:19;;;;;;;30.03;14.10;;;9.80;99.90;;;;;;5092468;28;20194;-80
2021/12/24 03:16:52;;;;;;;24.33;13.20;;;9.70;99.90;;;;;;5091903;28;20560;-80
2021/12/24 03:19:23;;;;;;;29.47;13.50;;;9.80;99.90;;;;;;5092733;28;20231;-79
2021/12/24 03:21:57;;;;;;;30.00;14.10;;;9.90;99.90;;;;;;5092159;28;20209;-78
2021/12/24 03:24:36;;;;;;;31.77;13.73;;;9.80;99.90;;;;;;5092347;28;20228;-79
2021/12/24 03:27:06;;;;;;;27.03;12.33;;;9.90;99.90;;;;;;5092240;28;20201;-80
2021/12/24 03:29:33;;;;;;;24.80;12.97;;;9.80;99.90;;;;;;5092087;28;20334;-79
2021/12/24 03:32:00;;;;;;;30.77;13.87;;;9.80;99.90;;;;;;5092285;28;20604;-82
2021/12/24 03:34:26;;;;;;;26.73;12.57;;;9.70;99.90;;;;;;5092265;28;20209;-80
2021/12/24 03:36:55;;;;;;;31.40;13.37;;;9.70;99.90;;;;;;5091750;28;20189;-78
2021/12/24 03:39:22;;;;;;;27.23;12.87;;;9.80;99.90;;;;;;5092000;28;20206;-80
2021/12/24 03:41:48;;;;;;;33.03;13.23;;;9.70;99.90;;;;;;5094094;28;20292;-79
2021/12/24 03:44:17;;;;;;;31.83;12.93;;;9.70;99.90;;;;;;5094778;28;20312;-79
2021/12/24 03:46:54;;;;;;;31.53;13.00;;;9.60;99.90;;;;;;5095422;28;20205;-78
2021/12/24 03:49:31;;;;;;;27.70;13.50;;;9.70;99.90;;;;;;5095611;28;20208;-79
2021/12/24 03:52:14;;;;;;;28.30;13.93;;;9.80;99.90;;;;;;5095519;28;20319;-80
2021/12/24 03:54:58;;;;;;;33.60;14.03;;;9.80;99.90;;;;;;5095897;28;20242;-79
2021/12/24 03:57:26;;;;;;;30.60;12.83;;;9.80;99.90;;;;;;5095670;28;20204;-80
2021/12/24 03:59:53;;;;;;;31.20;12.40;;;9.80;99.90;;;;;;5095405;28;20277;-79
2021/12/24 04:02:21;;;;;;;32.53;13.97;;;9.80;99.90;;;;;;5095216;28;20205;-81
2021/12/24 04:04:48;;;;;;;38.33;13.37;;;9.80;99.90;;;;;;5095111;28;20224;-79
2021/12/24 04:07:18;;;;;;;38.43;14.20;;;9.70;99.90;;;;;;5095230;28;20205;-82
2021/12/24 04:09:53;;;;;;;36.23;14.27;;;9.70;99.90;;;;;;5094972;28;20208;-82
2021/12/24 04:12:20;;;;;;;33.10;12.77;;;9.70;99.90;;;;;;5094958;28;20294;-80
2021/12/24 04:14:46;;;;;;;26.73;13.80;;;9.70;99.90;;;;;;5094777;28;20216;-81
2021/12/24 04:17:15;;;;;;;37.40;13.77;;;9.80;99.90;;;;;;5095288;28;20558;-79
2021/12/24 04:25:13;;;;;;;35.07;13.90;;;9.80;99.90;;;;;;5094634;28;20285;-79
2021/12/24 04:27:41;;;;;;;27.60;13.40;;;9.80;99.90;;;;;;5094901;28;20212;-78
2021/12/24 04:30:12;;;;;;;38.23;14.63;;;9.90;99.90;;;;;;5094811;28;20201;-78
2021/12/24 04:32:53;;;;;;;33.50;12.97;;;10.00;99.90;;;;;;5094745;28;20232;-78
2021/12/24 04:35:37;;;;;;;32.70;12.77;;;9.90;99.90;;;;;;5094722;28;20240;-79
2021/12/24 04:38:29;;;;;;;38.60;14.60;;;9.90;99.90;;;;;;5094564;28;20295;-81
2021/12/24 04:52:00;;;;;;;37.03;14.43;;;9.90;99.90;;;;;;5093920;28;20718;-82
2021/12/24 05:02:52;;;;;;;28.97;14.37;;;9.90;99.90;;;;;;5094174;28;20215;-82
2021/12/24 05:05:23;;;;;;;27.87;14.00;;;9.80;99.90;;;;;;5094046;28;20242;-79
2021/12/24 05:10:48;;;;;;;33.70;14.27;;;9.90;99.90;;;;;;5068666;28;20197;-79
2021/12/24 05:13:17;;;;;;;33.60;14.60;;;9.70;99.90;;;;;;5094193;28;20201;-78
2021/12/24 05:15:48;;;;;;;31.03;15.60;;;9.60;99.90;;;;;;5093658;28;20186;-85
2021/12/24 05:18:30;;;;;;;32.13;15.07;;;9.60;99.90;;;;;;5093926;28;20189;-83
2021/12/24 05:23:43;;;;;;;38.43;15.33;;;9.70;99.90;;;;;;5093844;28;20239;-82
2021/12/24 05:26:13;;;;;;;34.97;15.50;;;9.70;99.90;;;;;;5093483;28;20196;-82
2021/12/24 05:28:41;;;;;;;40.30;15.27;;;9.80;99.90;;;;;;5093720;28;20231;-83
2021/12/24 05:31:08;;;;;;;32.13;15.57;;;9.70;99.90;;;;;;5093668;28;20208;-81
2021/12/24 05:33:36;;;;;;;31.80;16.40;;;9.70;99.90;;;;;;5093695;28;20193;-80
2021/12/24 05:36:03;;;;;;;37.47;16.23;;;9.70;99.90;;;;;;5093485;28;20292;-78
2021/12/24 05:38:31;;;;;;;35.13;17.20;;;9.60;99.90;;;;;;5093378;28;20201;-79
2021/12/24 05:40:58;;;;;;;35.90;16.37;;;9.50;99.90;;;;;;5092994;28;20201;-83
2021/12/24 05:43:26;;;;;;;35.57;16.83;;;9.50;99.90;;;;;;5093278;28;20212;-81
2021/12/24 05:45:53;;;;;;;36.20;17.07;;;9.50;99.90;;;;;;5092663;28;20573;-80
2021/12/24 05:48:19;;;;;;;34.77;17.53;;;9.50;99.90;;;;;;5093200;28;20220;-81
2021/12/24 05:50:46;;;;;;;32.97;17.43;;;9.50;99.90;;;;;;5093176;28;20224;-82
2021/12/24 05:53:13;;;;;;;45.27;17.57;;;9.50;99.90;;;;;;5092980;28;20206;-78
2021/12/24 05:55:41;;;;;;;34.37;17.43;;;9.50;99.90;;;;;;5093115;28;20279;-79
2021/12/24 05:58:08;;;;;;;33.10;17.33;;;9.40;99.90;;;;;;5093027;28;20197;-83
2021/12/24 06:00:38;;;;;;;36.97;17.73;;;9.40;99.90;;;;;;5092917;28;20204;-81
2021/12/24 06:03:06;;;;;;;39.67;17.30;;;9.50;99.90;;;;;;5092572;28;20208;-81
2021/12/24 06:05:33;;;;;;;28.57;15.97;;;9.50;99.90;;;;;;5091483;28;20297;-79
2021/12/24 06:08:00;;;;;;;34.03;17.43;;;9.50;99.90;;;;;;5092466;28;20545;-83
2021/12/24 06:10:28;;;;;;;37.47;17.70;;;9.50;99.90;;;;;;5092613;28;20200;-81
2021/12/24 06:12:56;;;;;;;41.73;16.80;;;9.40;99.90;;;;;;5092908;28;20660;-81
2021/12/24 06:15:25;;;;;;;36.40;17.77;;;9.40;99.90;;;;;;5092343;28;20610;-82
2021/12/24 06:17:57;;;;;;;37.77;16.80;;;9.40;99.90;;;;;;5092798;28;20209;-79
2021/12/24 06:20:25;;;;;;;34.47;16.40;;;9.50;99.90;;;;;;5093172;28;20197;-78
2021/12/24 06:22:53;;;;;;;36.63;16.73;;;9.40;99.90;;;;;;5092649;28;20197;-78
2021/12/24 06:25:20;;;;;;;34.13;16.67;;;9.40;99.90;;;;;;5092449;28;20328;-81
2021/12/24 06:27:48;;;;;;;30.83;15.97;;;9.50;99.90;;;;;;5092970;28;20205;-82
2021/12/24 06:30:16;;;;;;;35.83;17.27;;;9.50;99.90;;;;;;5092711;28;20201;-84
2021/12/24 06:32:44;;;;;;;30.00;16.00;;;9.50;99.90;;;;;;5092783;28;20687;-82
2021/12/24 06:35:13;;;;;;;29.80;16.53;;;9.60;99.90;;;;;;5092910;28;20679;-82
2021/12/24 06:37:41;;;;;;;32.53;16.43;;;9.60;99.90;;;;;;5092329;28;20193;-83
2021/12/24 06:40:09;;;;;;;34.00;15.57;;;9.50;99.90;;;;;;5092428;28;20197;-81
2021/12/24 06:42:35;;;;;;;31.83;15.70;;;9.50;99.90;;;;;;5092415;28;20201;-81
2021/12/24 06:45:03;;;;;;;37.50;17.00;;;9.60;99.90;;;;;;5092662;28;20239;-83
2021/12/24 06:47:29;;;;;;;35.07;15.00;;;9.50;99.90;;;;;;5092361;28;20521;-82
2021/12/24 06:49:56;;;;;;;32.87;14.67;;;9.50;99.90;;;;;;5092630;28;20548;-84
2021/12/24 06:52:25;;;;;;;33.50;16.70;;;9.50;99.90;;;;;;5112008;28;20216;-85
2021/12/24 06:54:52;;;;;;;35.20;15.00;;;9.50;99.90;;;;;;5114375;28;20601;-84
2021/12/24 06:57:20;;;;;;;31.27;14.57;;;9.60;99.90;;;;;;5113764;28;20284;-82
2021/12/24 06:59:47;;;;;;;32.60;14.93;;;9.50;99.90;;;;;;5113198;28;20201;-83
2021/12/24 07:02:14;;;;;;;33.60;14.97;;;9.50;99.90;;;;;;5113771;28;20184;-80
2021/12/24 07:04:41;;;;;;;29.43;14.57;;;9.50;99.90;;;;;;5114336;28;20235;-83
2021/12/24 07:07:07;;;;;;;25.67;14.03;;;9.50;99.90;;;;;;5100031;28;20193;-81
2021/12/24 07:09:42;;;;;;;30.30;14.57;;;9.40;99.90;;;;;;5092573;28;20209;-81
2021/12/24 07:12:11;;;;;;;28.50;13.43;;;9.40;99.90;;;;;;5092440;28;20212;-81
2021/12/24 07:14:39;;;;;;;25.93;15.03;;;9.40;99.90;;;;;;5092867;28;20209;-83
2021/12/24 07:17:06;;;;;;;29.17;14.47;;;9.60;99.90;;;;;;5095386;28;20213;-81
2021/12/24 07:19:34;;;;;;;27.97;16.67;;;9.60;99.90;;;;;;5095993;28;20212;-84
2021/12/24 07:22:00;;;;;;;28.50;14.70;;;9.60;99.90;;;;;;5097991;28;20189;-80
2021/12/24 07:24:28;;;;;;;36.97;15.40;;;9.50;99.90;;;;;;5095948;28;20209;-79
2021/12/24 07:26:57;;;;;;;32.13;16.40;;;9.40;99.90;;;;;;5095886;28;20595;-82
2021/12/24 07:29:25;;;;;;;32.30;15.17;;;9.40;99.90;;;;;;5096140;28;20550;-81
2021/12/24 07:31:53;;;;;;;30.77;15.57;;;9.40;99.90;;;;;;5096102;28;20189;-78
2021/12/24 07:34:20;;;;;;;30.10;15.00;;;9.40;99.90;;;;;;5095831;28;20186;-78
2021/12/24 07:36:49;;;;;;;28.27;15.30;;;9.40;99.90;;;;;;5095415;28;20533;-84
2021/12/24 07:39:15;;;;;;;28.13;15.60;;;9.50;99.90;;;;;;5095937;28;20205;-85
2021/12/24 07:41:43;;;;;;;27.67;16.07;;;9.40;99.90;;;;;;5095928;28;20780;-84
2021/12/24 07:44:11;;;;;;;31.37;14.20;;;9.40;99.90;;;;;;5096036;28;20250;-85
2021/12/24 07:46:44;;;;;;;30.60;18.27;;;9.30;99.90;;;;;;5101584;28;20553;-82
2021/12/24 07:49:29;;;;;;;29.00;15.30;;;9.40;99.90;;;;;;5116280;28;20230;-83
2021/12/24 07:52:08;;;;;;;27.40;14.33;;;9.40;99.90;;;;;;5115832;28;20305;-81
2021/12/24 07:54:37;;;;;;;25.63;14.53;;;9.50;99.90;;;;;;5115730;28;20196;-83
2021/12/24 07:57:05;;;;;;;29.90;14.63;;;9.50;99.90;;;;;;5115822;28;20196;-82
2021/12/24 07:59:36;;;;;;;25.10;14.40;;;9.40;99.90;;;;;;5111562;28;20654;-83
2021/12/24 08:02:07;;;;;;;28.03;14.20;;;9.40;99.90;;;;;;5095934;28;20208;-83
2021/12/24 08:04:35;;;;;;;30.00;13.83;;;9.40;99.90;;;;;;5095347;28;20213;-82
2021/12/24 08:07:02;;;;;;;27.40;14.87;;;9.30;99.90;;;;;;5095470;28;20241;-79
2021/12/24 08:09:29;;;;;;;27.40;13.80;;;9.20;99.90;;;;;;5094920;28;20632;-81
2021/12/24 08:11:56;;;;;;;26.70;14.57;;;9.20;99.90;;;;;;5096448;28;20231;-78
2021/12/24 08:14:23;;;;;;;20.70;14.30;;;9.30;99.90;;;;;;5106540;28;20543;-80
2021/12/24 08:16:51;;;;;;;33.13;16.00;;;9.30;99.90;;;;;;5103856;28;20201;-82
2021/12/24 08:19:18;;;;;;;29.27;15.33;;;9.30;99.90;;;;;;5105361;28;20643;-80
2021/12/24 08:21:46;;;;;;;25.17;14.80;;;9.40;99.90;;;;;;5108692;28;20250;-79
2021/12/24 08:24:13;;;;;;;31.43;17.17;;;9.40;99.90;;;;;;5102828;28;20262;-79
2021/12/24 08:26:40;;;;;;;32.00;16.30;;;9.40;99.90;;;;;;5096710;28;20201;-78
2021/12/24 08:29:07;;;;;;;34.90;16.77;;;9.40;99.90;;;;;;5094032;28;20555;-80
2021/12/24 08:31:37;;;;;;;30.90;16.10;;;9.40;99.90;;;;;;5094841;28;20213;-80
2021/12/24 08:34:06;;;;;;;26.17;15.33;;;9.50;99.90;;;;;;5097267;28;20570;-81
2021/12/24 08:36:35;;;;;;;27.77;16.53;;;9.40;99.90;;;;;;5108940;28;20217;-81
2021/12/24 08:39:02;;;;;;;40.27;17.27;;;9.40;99.90;;;;;;5108929;28;20205;-81
2021/12/24 08:41:29;;;;;;;33.43;16.20;;;9.40;99.90;;;;;;5108299;28;20254;-80
2021/12/24 08:43:56;;;;;;;30.13;16.57;;;9.20;99.90;;;;;;5108710;28;20773;-80
2021/12/24 08:46:24;;;;;;;32.40;17.23;;;9.20;99.90;;;;;;5102202;28;20710;-80
2021/12/24 08:48:53;;;;;;;29.00;16.87;;;9.20;99.90;;;;;;5094864;28;20564;-82
2021/12/24 08:51:22;;;;;;;31.03;17.30;;;9.20;99.90;;;;;;5095280;28;20238;-80
2021/12/24 08:53:51;;;;;;;28.13;16.77;;;9.10;99.90;;;;;;5097154;28;20213;-82
2021/12/24 08:56:18;;;;;;;34.73;18.77;;;9.20;99.90;;;;;;5097505;28;20251;-83
2021/12/24 08:58:45;;;;;;;30.37;17.57;;;9.10;99.90;;;;;;5097711;28;20209;-82
2021/12/24 09:01:12;;;;;;;33.07;18.50;;;9.00;99.90;;;;;;5095058;28;20201;-81
2021/12/24 09:03:39;;;;;;;34.10;18.33;;;9.10;99.90;;;;;;5095772;28;20205;-83
2021/12/24 09:06:07;;;;;;;31.30;19.17;;;9.00;99.90;;;;;;5095200;28;20357;-82
2021/12/24 09:08:36;;;;;;;33.80;19.43;;;9.00;99.90;;;;;;5095054;28;20193;-83
2021/12/24 09:11:03;;;;;;;35.07;20.17;;;8.70;99.90;;;;;;5094616;28;20554;-82
2021/12/24 09:13:32;;;;;;;35.10;21.03;;;8.70;99.90;;;;;;5094729;28;20550;-81
2021/12/24 09:16:01;;;;;;;38.80;20.87;;;8.80;99.90;;;;;;5094031;28;20209;-83
2021/12/24 09:18:30;;;;;;;34.77;19.53;;;8.80;99.90;;;;;;5098124;28;20267;-83
2021/12/24 09:21:00;;;;;;;35.33;19.77;;;8.80;99.90;;;;;;5111953;28;20276;-84
2021/12/24 09:23:27;;;;;;;40.07;19.90;;;8.90;99.90;;;;;;5110012;28;20192;-82
2021/12/24 09:25:55;;;;;;;38.83;20.13;;;9.00;99.90;;;;;;5098441;28;20225;-85
2021/12/24 09:28:23;;;;;;;41.20;20.23;;;9.20;99.90;;;;;;5097155;28;20201;-80
2021/12/24 09:30:50;;;;;;;36.23;18.70;;;9.20;99.90;;;;;;5094147;28;20652;-83
2021/12/24 09:33:17;;;;;;;33.17;19.43;;;9.20;99.90;;;;;;5093480;28;20196;-82
2021/12/24 09:35:46;;;;;;;33.03;20.07;;;9.30;99.90;;;;;;5093979;28;20219;-83
2021/12/24 09:38:15;;;;;;;35.10;18.77;;;9.20;99.90;;;;;;5093957;28;20641;-84
2021/12/24 09:40:42;;;;;;;36.60;19.13;;;9.30;99.90;;;;;;5093628;28;20185;-82
2021/12/24 09:43:11;;;;;;;34.50;19.57;;;9.30;99.90;;;;;;5100553;28;20221;-81
2021/12/24 09:45:38;;;;;;;33.20;17.57;;;9.30;99.90;;;;;;5110153;28;20221;-80
2021/12/24 09:48:05;;;;;;;38.63;18.70;;;9.40;99.90;;;;;;5097298;28;20216;-80
2021/12/24 09:50:32;;;;;;;35.07;17.37;;;9.40;99.90;;;;;;5099391;28;20213;-81
2021/12/24 09:52:58;;;;;;;34.63;20.37;;;9.30;99.90;;;;;;5095064;28;20207;-80
2021/12/24 09:55:29;;;;;;;36.50;19.53;;;9.30;99.90;;;;;;5092852;28;20193;-85
2021/12/24 09:57:57;;;;;;;36.77;19.33;;;9.40;99.90;;;;;;5093716;28;20212;-77
2021/12/24 10:00:26;;;;;;;32.70;19.07;;;9.40;99.90;;;;;;5092417;28;20566;-79
2021/12/24 10:02:55;;;;;;;34.73;19.57;;;9.20;99.90;;;;;;5093329;28;20652;-80
2021/12/24 10:05:35;;;;;;;35.53;19.57;;;9.10;99.90;;;;;;5093437;28;20217;-81
2021/12/24 10:08:15;;;;;;;35.40;18.07;;;9.10;99.90;;;;;;5093345;28;20196;-82
2021/12/24 10:10:45;;;;;;;45.53;20.20;;;9.20;99.90;;;;;;5092989;28;20276;-81
2021/12/24 10:13:30;;;;;;;29.50;17.67;;;9.10;99.90;;;;;;5093012;28;20204;-83
2021/12/24 10:16:01;;;;;;;34.03;19.30;;;9.20;99.90;;;;;;5099435;28;20221;-82
2021/12/24 10:18:31;;;;;;;35.10;18.57;;;9.30;99.90;;;;;;5101063;28;20192;-83
2021/12/24 10:21:00;;;;;;;28.57;18.30;;;9.30;99.90;;;;;;5101698;28;20197;-79
2021/12/24 10:23:44;;;;;;;33.43;17.33;;;9.40;99.90;;;;;;5102854;28;20264;-82
2021/12/24 10:26:17;;;;;;;31.60;16.53;;;9.40;99.90;;;;;;5103018;28;20220;-81
2021/12/24 10:29:05;;;;;;;29.90;17.27;;;9.40;99.90;;;;;;5100483;28;20196;-83
2021/12/24 10:31:35;;;;;;;28.57;15.80;;;9.30;99.90;;;;;;5091420;28;20656;-83
2021/12/24 10:34:17;;;;;;;29.60;15.80;;;9.30;99.90;;;;;;5095416;28;20565;-81
2021/12/24 10:37:08;;;;;;;26.47;14.30;;;9.40;99.90;;;;;;5092832;28;20197;-81
2021/12/24 10:39:40;;;;;;;27.57;15.43;;;9.50;99.90;;;;;;5093032;28;20201;-79
2021/12/24 10:42:09;;;;;;;23.40;14.60;;;9.50;99.90;;;;;;5092562;28;20205;-82
2021/12/24 10:44:38;;;;;;;26.87;14.70;;;9.50;99.90;;;;;;5092839;28;20205;-81
2021/12/24 10:47:12;;;;;;;25.37;14.57;;;9.40;99.90;;;;;;5092578;28;20239;-82
2021/12/24 10:52:59;;;;;;;24.30;14.37;;;9.40;99.90;;;;;;5071462;28;20212;-84
2021/12/24 10:55:30;;;;;;;25.43;14.93;;;9.60;99.90;;;;;;5096607;28;20212;-86
2021/12/24 10:58:06;;;;;;;24.80;15.30;;;9.60;99.90;;;;;;5096742;28;20574;-79
2021/12/24 11:00:38;;;;;;;29.23;15.00;;;9.50;99.90;;;;;;5103800;28;20193;-83
2021/12/24 11:03:08;;;;;;;26.83;15.40;;;9.60;99.90;;;;;;5100406;28;20288;-81
2021/12/24 11:05:39;;;;;;;26.17;14.93;;;9.70;99.90;;;;;;5116633;28;20208;-80
2021/12/24 11:08:10;;;;;;;27.47;16.73;;;9.60;99.90;;;;;;5116729;28;20196;-80
2021/12/24 11:10:39;;;;;;;26.47;15.97;;;9.50;99.90;;;;;;5116681;28;20552;-80
2021/12/24 11:13:10;;;;;;;22.27;14.43;;;9.70;99.90;;;;;;5116472;28;20212;-78
2021/12/24 11:15:41;;;;;;;25.77;15.20;;;9.80;99.90;;;;;;5116009;28;20200;-81
2021/12/24 11:18:16;;;;;;;25.10;14.17;;;9.80;99.90;;;;;;5116388;28;20203;-79
2021/12/24 11:20:44;;;;;;;24.30;14.40;;;9.90;99.90;;;;;;5116275;28;20200;-81
2021/12/24 11:23:14;;;;;;;25.93;13.90;;;10.00;99.90;;;;;;5114670;28;20215;-82
2021/12/24 11:25:43;;;;;;;24.73;14.60;;;10.00;99.90;;;;;;5106758;28;20216;-79
2021/12/24 11:28:11;;;;;;;25.53;14.30;;;9.90;99.90;;;;;;5106809;28;20197;-81
2021/12/24 11:30:42;;;;;;;23.17;13.80;;;9.90;99.90;;;;;;5113404;27;20204;-82
2021/12/24 11:33:16;;;;;;;22.23;14.40;;;9.80;99.90;;;;;;5104451;28;20212;-83
2021/12/24 11:35:44;;;;;;;26.70;14.93;;;9.70;99.90;;;;;;5106248;28;20397;-80
2021/12/24 11:38:15;;;;;;;27.30;14.43;;;9.70;99.90;;;;;;5106743;28;20197;-80
2021/12/24 11:40:42;;;;;;;23.50;15.30;;;9.70;99.90;;;;;;5104776;27;20224;-79
2021/12/24 11:43:10;;;;;;;21.87;14.43;;;9.60;99.90;;;;;;5103296;28;20207;-81
2021/12/24 11:45:38;;;;;;;25.73;14.27;;;9.70;99.90;;;;;;5100979;28;20314;-81
2021/12/24 11:48:06;;;;;;;25.47;15.30;;;9.70;99.90;;;;;;5095580;28;20205;-81
2021/12/24 11:50:34;;;;;;;27.77;14.93;;;9.70;99.90;;;;;;5101375;28;20237;-81
2021/12/24 11:53:07;;;;;;;25.93;13.67;;;9.60;99.90;;;;;;5096239;28;20189;-84
2021/12/24 11:55:40;;;;;;;27.10;14.63;;;9.70;99.90;;;;;;5096272;28;20641;-83
2021/12/24 11:58:10;;;;;;;21.67;14.17;;;9.80;99.90;;;;;;5095317;28;20186;-85
2021/12/24 12:00:40;;;;;;;21.33;14.43;;;9.80;99.90;;;;;;5095705;28;20209;-81
2021/12/24 12:03:10;;;;;;;29.77;18.02;;;9.90;99.90;;;;;;5093820;28;20433;-81
2021/12/24 12:05:44;;;;;;;25.00;15.30;;;10.00;99.90;;;;;;5095778;28;20232;-83
2021/12/24 12:08:36;;;;;;;23.83;13.70;;;10.00;99.90;;;;;;5095875;28;20205;-84
2021/12/24 12:11:08;;;;;;;26.60;15.17;;;10.10;99.90;;;;;;5095413;28;20283;-84
2021/12/24 12:13:54;;;;;;;29.90;15.00;;;10.00;99.90;;;;;;5095631;28;20296;-83
2021/12/24 12:16:24;;;;;;;24.30;14.70;;;10.10;99.90;;;;;;5112179;28;20261;-81
2021/12/24 12:19:09;;;;;;;24.90;15.30;;;10.10;99.90;;;;;;5115971;28;20199;-81
2021/12/24 12:21:40;;;;;;;20.63;13.27;;;10.00;99.90;;;;;;5115899;28;20211;-82
2021/12/24 12:27:02;;;;;;;22.97;13.77;;;10.10;99.90;;;;;;5115080;28;20231;-83
2021/12/24 12:29:43;;;;;;;22.83;13.33;;;10.10;99.90;;;;;;5115456;28;20549;-81
2021/12/24 12:32:40;;;;;;;18.77;12.67;;;10.20;99.90;;;;;;5115188;28;20200;-80
2021/12/24 12:35:07;;;;;;;20.73;12.50;;;10.10;99.90;;;;;;5114519;28;20258;-81
2021/12/24 12:37:45;;;;;;;21.50;12.90;;;10.10;99.90;;;;;;5115619;28;20204;-82
2021/12/24 12:40:30;;;;;;;19.87;13.43;;;10.10;99.90;;;;;;5115312;28;20208;-81
2021/12/24 12:43:10;;;;;;;18.17;12.83;;;10.20;99.90;;;;;;5115263;28;20200;-82
2021/12/24 12:46:01;;;;;;;20.97;13.50;;;10.30;99.90;;;;;;5115269;28;20188;-81
2021/12/24 12:48:50;;;;;;;22.10;13.67;;;10.20;99.90;;;;;;5115314;28;20228;-86
2021/12/24 12:51:20;;;;;;;19.03;12.57;;;10.40;99.90;;;;;;5115328;28;20220;-79
2021/12/24 12:53:51;;;;;;;21.80;13.00;;;10.30;99.90;;;;;;5115552;28;20279;-82
2021/12/24 12:56:27;;;;;;;20.73;13.60;;;10.40;99.90;;;;;;5102525;28;20236;-80
2021/12/24 12:58:59;;;;;;;21.07;14.23;;;10.60;99.90;;;;;;5101279;28;20279;-80
2021/12/24 13:01:27;;;;;;;22.10;14.27;;;10.60;99.90;;;;;;5102778;28;20201;-81
2021/12/24 13:04:14;;;;;;;23.90;13.23;;;10.60;99.90;;;;;;5105078;28;20538;-81
2021/12/24 13:06:55;;;;;;;19.67;13.17;;;10.50;99.90;;;;;;5103991;28;20217;-84
2021/12/24 13:09:33;;;;;;;23.40;14.40;;;10.40;99.90;;;;;;5105169;28;20200;-85
2021/12/24 13:12:02;;;;;;;26.80;13.80;;;10.40;99.90;;;;;;5112228;28;20208;-81
2021/12/24 13:14:31;;;;;;;21.83;12.90;;;10.50;99.90;;;;;;5112488;28;20227;-85
2021/12/24 13:17:17;;;;;;;19.77;13.03;;;10.60;99.90;;;;;;5113553;28;20201;-82
2021/12/24 13:20:11;;;;;;;24.00;13.40;;;10.70;99.90;;;;;;5115906;27;20193;-83
2021/12/24 13:22:37;;;;;;;18.93;13.20;;;10.80;99.90;;;;;;5104264;28;20602;-84
2021/12/24 13:25:12;;;;;;;22.27;13.17;;;10.80;99.90;;;;;;5094502;28;20197;-84
2021/12/24 13:27:41;;;;;;;24.00;13.03;;;10.70;99.90;;;;;;5093432;28;20317;-82
2021/12/24 13:30:11;;;;;;;27.17;13.83;;;10.70;99.90;;;;;;5093082;28;20653;-81
2021/12/24 13:32:41;;;;;;;20.70;12.27;;;10.70;99.90;;;;;;5093828;28;20284;-82
2021/12/24 13:35:09;;;;;;;19.83;12.53;;;10.80;99.90;;;;;;5093439;28;20209;-84
2021/12/24 13:37:36;;;;;;;23.17;13.03;;;10.80;99.90;;;;;;5093525;28;20204;-80
2021/12/24 13:40:10;;;;;;;17.97;13.10;;;10.70;99.90;;;;;;5092799;28;20207;-79
2021/12/24 13:42:47;;;;;;;20.30;13.53;;;10.60;99.90;;;;;;5093016;28;20197;-82
2021/12/24 13:45:16;;;;;;;18.97;12.80;;;10.50;99.90;;;;;;5093157;28;20212;-82
2021/12/24 13:47:57;;;;;;;22.33;13.57;;;10.50;99.90;;;;;;5097959;28;20230;-85
2021/12/24 13:55:58;;;;;;;24.53;16.13;;;10.70;99.90;;;;;;5104647;28;20197;-84
2021/12/24 13:58:24;;;;;;;26.30;16.77;;;11.00;99.90;;;;;;5102932;28;20199;-82
2021/12/24 14:00:55;;;;;;;27.73;17.43;;;10.90;99.90;;;;;;5113099;28;20204;-80
2021/12/24 14:03:28;;;;;;;27.73;17.53;;;10.70;99.90;;;;;;5113857;28;20185;-84
2021/12/24 14:05:57;;;;;;;26.40;16.80;;;10.70;99.90;;;;;;5113885;28;20204;-84
2021/12/24 14:08:32;;;;;;;28.70;17.70;;;10.80;99.90;;;;;;5113223;28;20250;-83
2021/12/24 14:11:09;;;;;;;28.27;17.90;;;11.00;99.90;;;;;;5113406;28;20204;-84
2021/12/24 14:13:40;;;;;;;29.27;17.73;;;11.00;99.90;;;;;;5113502;28;20215;-83